createdAt,value
2022-10-14T00:02:03.566Z,99843.09
2022-10-14T00:04:31.566Z,99847.47
2022-10-14T00:06:59.771Z,99839.44
2022-10-14T00:09:27.666Z,99832.25
2022-10-14T00:11:55.278Z,99843.78
2022-10-14T00:14:22.877Z,99835.91
2022-10-14T00:16:50.888Z,99839.56
2022-10-14T00:19:18.455Z,99833.53
2022-10-14T00:21:46.257Z,99831.97
2022-10-14T00:24:13.866Z,99835.50
2022-10-14T00:26:41.443Z,99826.75
2022-10-14T00:29:09.396Z,99822.41
2022-10-14T00:31:37.154Z,99818.03
2022-10-14T00:34:04.776Z,99834.09
2022-10-14T00:36:32.374Z,99822.69
2022-10-14T00:39:00.004Z,99820.03
2022-10-14T00:41:27.551Z,99822.56
2022-10-14T00:43:55.086Z,99825.38
2022-10-14T00:46:22.679Z,99821.72
2022-10-14T00:48:50.265Z,99818.22
2022-10-14T00:51:17.875Z,99816.34
2022-10-14T00:53:45.514Z,99823.41
2022-10-14T00:56:13.085Z,99818.03
2022-10-14T00:58:40.886Z,99823.41
2022-10-14T01:01:09.095Z,99823.41
2022-10-14T01:03:36.730Z,99822.41
2022-10-14T01:06:04.676Z,99816.06
2022-10-14T01:08:32.278Z,99818.59
2022-10-14T01:10:59.896Z,99815.91
2022-10-14T01:13:27.788Z,99814.09
2022-10-14T01:15:55.398Z,99806.91
2022-10-14T01:18:23.343Z,99804.38
2022-10-14T01:20:50.919Z,99812.41
2022-10-14T01:23:20.079Z,99809.88
2022-10-14T01:25:47.641Z,99804.53
2022-10-14T01:28:15.235Z,99807.06
2022-10-14T01:30:43.283Z,99810.56
2022-10-14T01:33:10.818Z,99796.38
2022-10-14T01:35:38.540Z,99807.06
2022-10-14T01:38:06.127Z,99807.06
2022-10-14T01:40:33.672Z,99800.84
2022-10-14T01:43:01.622Z,99805.34
2022-10-14T01:45:29.213Z,99789.28
2022-10-14T01:47:56.796Z,99796.38
2022-10-14T01:50:24.323Z,99790.16
2022-10-14T01:52:51.974Z,99786.47
2022-10-14T01:55:19.929Z,99791.69
2022-10-14T01:57:47.446Z,99785.50
2022-10-14T02:00:15.239Z,99792.38
2022-10-14T02:02:42.782Z,99790.72
2022-10-14T02:05:10.319Z,99788.72
2022-10-14T02:07:38.565Z,99782.53
2022-10-14T02:10:06.166Z,99777.19
2022-10-14T02:12:33.960Z,99777.03
2022-10-14T02:15:01.555Z,99775.19
2022-10-14T02:17:29.108Z,99772.41
2022-10-14T02:19:57.024Z,99774.06
2022-10-14T02:22:24.597Z,99769.53
2022-10-14T02:24:52.339Z,99770.41
2022-10-14T02:27:19.871Z,99768.59
2022-10-14T02:29:47.840Z,99762.25
2022-10-14T02:32:15.807Z,99760.69
2022-10-14T02:34:43.331Z,99759.84
2022-10-14T02:37:10.956Z,99759.00
2022-10-14T02:39:38.478Z,99751.25
2022-10-14T02:42:06.048Z,99747.88
2022-10-14T02:44:33.983Z,99746.34
2022-10-14T02:47:01.710Z,99737.75
2022-10-14T02:49:29.241Z,99738.91
2022-10-14T02:51:57.175Z,99745.41
2022-10-14T02:54:24.765Z,99750.19
2022-10-14T02:56:52.694Z,99737.78
2022-10-14T02:59:21.417Z,99732.59
2022-10-14T03:01:50.023Z,99735.28
2022-10-14T03:04:17.595Z,99739.63
2022-10-14T03:06:45.210Z,99738.66
2022-10-14T03:09:13.236Z,99734.16
2022-10-14T03:11:40.795Z,99728.81
2022-10-14T03:14:10.064Z,99736.66
2022-10-14T03:16:37.600Z,99727.81
2022-10-14T03:19:05.188Z,99718.66
2022-10-14T03:21:33.335Z,99720.34
2022-10-14T03:24:01.757Z,99712.31
2022-10-14T03:26:29.483Z,99715.97
2022-10-14T03:28:57.169Z,99714.13
2022-10-14T03:31:24.823Z,99706.22
2022-10-14T03:33:52.759Z,99705.41
2022-10-14T03:36:20.999Z,99704.56
2022-10-14T03:38:48.842Z,99709.22
2022-10-14T03:41:16.373Z,99703.00
2022-10-14T03:43:43.934Z,99700.50
2022-10-14T03:46:11.899Z,99706.00
2022-10-14T03:48:39.411Z,99708.81
2022-10-14T03:51:07.182Z,99706.28
2022-10-14T03:53:34.728Z,99697.41
2022-10-14T03:56:02.294Z,99697.41
2022-10-14T03:58:30.536Z,99701.78
2022-10-14T04:00:58.274Z,99696.41
2022-10-14T04:03:25.802Z,99691.06
2022-10-14T04:05:53.376Z,99695.44
2022-10-14T04:08:20.939Z,99688.38
2022-10-14T04:10:48.722Z,99681.34
2022-10-14T04:13:16.326Z,99688.38
2022-10-14T04:15:43.883Z,99689.25
2022-10-14T04:18:11.428Z,99689.25
2022-10-14T04:20:39.389Z,99684.72
2022-10-14T04:23:07.590Z,99684.59
2022-10-14T04:25:35.145Z,99696.97
2022-10-14T04:28:02.949Z,99686.13
2022-10-14T04:30:30.519Z,99684.44
2022-10-14T04:32:58.079Z,99686.81
2022-10-14T04:35:25.713Z,99688.50
2022-10-14T04:37:53.283Z,99684.84
2022-10-14T04:40:25.729Z,99685.69
2022-10-14T04:42:53.334Z,99682.88
2022-10-14T04:45:20.939Z,99672.16
2022-10-14T04:47:48.965Z,99680.88
2022-10-14T04:50:16.568Z,99673.72
2022-10-14T04:52:44.466Z,99674.41
2022-10-14T04:55:12.234Z,99666.38
2022-10-14T04:57:43.310Z,99670.59
2022-10-14T05:00:11.257Z,99667.06
2022-10-14T05:02:39.189Z,99665.25
2022-10-14T05:05:07.024Z,99668.59
2022-10-14T05:07:34.589Z,99672.97
2022-10-14T05:10:04.178Z,99673.97
2022-10-14T05:12:32.115Z,99676.50
2022-10-14T05:14:59.664Z,99678.19
2022-10-14T05:17:27.406Z,99681.69
2022-10-14T05:19:55.053Z,99686.03
2022-10-14T05:22:22.997Z,99674.50
2022-10-14T05:24:51.674Z,99672.66
2022-10-14T05:27:19.277Z,99665.63
2022-10-14T05:29:47.040Z,99671.81
2022-10-14T05:32:14.622Z,99663.94
2022-10-14T05:34:42.274Z,99666.63
2022-10-14T05:37:10.249Z,99669.28
2022-10-14T05:39:37.811Z,99671.97
2022-10-14T05:42:05.612Z,99665.78
2022-10-14T05:44:33.220Z,99670.97
2022-10-14T05:47:00.807Z,99663.94
2022-10-14T05:49:28.800Z,99663.94
2022-10-14T05:51:56.394Z,99663.13
2022-10-14T05:54:24.126Z,99659.44
2022-10-14T05:56:51.754Z,99658.59
2022-10-14T05:59:19.635Z,99662.13
2022-10-14T06:01:47.233Z,99664.78
2022-10-14T06:04:14.871Z,99655.09
2022-10-14T06:06:44.619Z,99658.59
2022-10-14T06:09:12.223Z,99641.72
2022-10-14T06:11:40.094Z,99653.22
2022-10-14T06:14:08.055Z,99648.75
2022-10-14T06:16:35.741Z,99649.56
2022-10-14T06:19:03.617Z,99644.53
2022-10-14T06:21:31.200Z,99650.56
2022-10-14T06:23:58.827Z,99636.34
2022-10-14T06:26:26.472Z,99645.88
2022-10-14T06:28:54.477Z,99643.06
2022-10-14T06:31:23.132Z,99634.75
2022-10-14T06:33:50.745Z,99633.59
2022-10-14T06:36:18.422Z,99623.44
2022-10-14T06:38:46.365Z,99629.31
2022-10-14T06:41:14.067Z,99627.19
2022-10-14T06:43:42.046Z,99626.06
2022-10-14T06:46:09.653Z,99625.59
2022-10-14T06:48:37.731Z,99614.44
2022-10-14T06:51:06.180Z,99613.00
2022-10-14T06:53:33.851Z,99617.72
2022-10-14T06:56:01.882Z,99625.06
2022-10-14T06:58:29.672Z,99613.56
2022-10-14T07:03:26.527Z,99603.84
2022-10-14T07:05:54.163Z,99605.91
2022-10-14T07:08:22.064Z,99609.13
2022-10-14T07:10:49.693Z,99606.97
2022-10-14T07:13:17.697Z,99609.47
2022-10-14T07:15:45.764Z,99611.00
2022-10-14T07:18:14.168Z,99615.38
2022-10-14T07:20:41.960Z,99610.00
2022-10-14T07:23:10.173Z,99606.50
2022-10-14T07:25:38.075Z,99609.19
2022-10-14T07:28:06.082Z,99603.97
2022-10-14T07:30:33.847Z,99607.66
2022-10-14T07:33:01.756Z,99602.16
2022-10-14T07:35:29.981Z,99606.50
2022-10-14T07:37:57.646Z,99610.00
2022-10-14T07:40:25.702Z,99608.88
2022-10-14T07:42:53.342Z,99608.25
2022-10-14T07:45:21.487Z,99610.50
2022-10-14T07:47:49.367Z,99608.88
2022-10-14T07:50:17.340Z,99608.94
2022-10-14T07:52:45.439Z,99598.59
2022-10-14T07:55:13.224Z,99599.94
2022-10-14T07:57:42.705Z,99593.28
2022-10-14T08:00:10.466Z,99586.41
2022-10-14T08:02:38.365Z,99588.63
2022-10-14T08:05:36.353Z,99588.13
2022-10-14T08:07:54.917Z,99596.03
2022-10-14T08:10:22.855Z,99601.06
2022-10-14T08:12:51.414Z,99594.56
2022-10-14T08:15:19.728Z,99591.59
2022-10-14T08:17:47.567Z,99591.94
2022-10-14T08:20:15.563Z,99597.00
2022-10-14T08:22:43.418Z,99595.13
2022-10-14T08:25:11.154Z,99594.13
2022-10-14T08:27:39.244Z,99586.78
2022-10-14T08:30:10.296Z,99574.03
2022-10-14T08:32:39.173Z,99579.75
2022-10-14T08:35:06.995Z,99581.97
2022-10-14T08:37:34.787Z,99582.28
2022-10-14T08:40:04.321Z,99570.25
2022-10-14T08:42:32.046Z,99570.41
2022-10-14T08:45:00.505Z,99572.78
2022-10-14T08:47:28.336Z,99560.19
2022-10-14T08:49:56.302Z,99557.00
2022-10-14T08:52:24.789Z,99564.41
2022-10-14T08:54:55.660Z,99573.84
2022-10-14T08:57:24.004Z,99565.59
2022-10-14T08:59:51.958Z,99561.59
2022-10-14T09:02:20.351Z,99556.06
2022-10-14T09:04:49.007Z,99555.56
2022-10-14T09:07:16.907Z,99555.88
2022-10-14T09:09:45.298Z,99560.09
2022-10-14T09:12:13.139Z,99555.56
2022-10-14T09:14:41.086Z,99543.81
2022-10-14T09:17:09.483Z,99552.69
2022-10-14T09:19:37.320Z,99554.41
2022-10-14T09:22:05.579Z,99546.50
2022-10-14T09:24:35.925Z,99535.09
2022-10-14T09:27:03.895Z,99532.91
2022-10-14T09:29:32.233Z,99525.50
2022-10-14T09:32:00.165Z,99526.69
2022-10-14T09:34:27.998Z,99519.97
2022-10-14T09:36:55.864Z,99518.31
2022-10-14T09:39:23.740Z,99513.41
2022-10-14T09:41:52.373Z,99512.59
2022-10-14T09:44:21.713Z,99506.88
2022-10-14T09:46:49.850Z,99509.91
2022-10-14T09:49:17.780Z,99507.34
2022-10-14T09:51:45.739Z,99500.66
2022-10-14T09:54:14.826Z,99501.63
2022-10-14T09:56:42.909Z,99505.16
2022-10-14T09:59:11.259Z,99496.41
2022-10-14T10:01:39.414Z,99496.38
2022-10-14T10:04:07.586Z,99492.66
2022-10-14T10:06:36.389Z,99501.06
2022-10-14T10:09:04.334Z,99498.88
2022-10-14T10:11:33.597Z,99490.94
2022-10-14T10:14:01.390Z,99485.63
2022-10-14T10:16:31.487Z,99495.06
2022-10-14T10:19:01.855Z,99478.72
2022-10-14T10:21:30.316Z,99475.66
2022-10-14T10:23:58.556Z,99475.00
2022-10-14T10:26:27.330Z,99477.56
2022-10-14T10:28:57.843Z,99474.13
2022-10-14T10:31:26.482Z,99488.63
2022-10-14T10:33:55.598Z,99484.25
2022-10-14T10:36:23.522Z,99475.78
2022-10-14T10:38:51.401Z,99464.94
2022-10-14T10:41:19.340Z,99465.59
2022-10-14T10:43:50.002Z,99473.03
2022-10-14T10:46:17.884Z,99467.06
2022-10-14T10:48:45.951Z,99465.44
2022-10-14T10:51:14.961Z,99461.78
2022-10-14T10:53:42.821Z,99451.38
2022-10-14T10:56:11.036Z,99462.13
2022-10-14T10:58:39.040Z,99455.25
2022-10-14T11:01:07.622Z,99444.19
2022-10-14T11:03:35.702Z,99446.03
2022-10-14T11:06:03.743Z,99443.16
2022-10-14T11:08:49.400Z,99441.66
2022-10-14T11:11:34.960Z,99435.69
2022-10-14T11:14:03.215Z,99441.13
2022-10-14T11:16:31.260Z,99431.72
2022-10-14T11:19:01.203Z,99433.75
2022-10-14T11:21:29.107Z,99424.66
2022-10-14T11:24:00.093Z,99411.38
2022-10-14T11:26:28.195Z,99425.69
2022-10-14T11:28:56.081Z,99419.66
2022-10-14T11:31:28.022Z,99415.94
2022-10-14T11:33:56.449Z,99401.94
2022-10-14T11:36:24.199Z,99402.69
2022-10-14T11:38:52.328Z,99412.41
2022-10-14T11:41:20.838Z,99405.94
2022-10-14T11:43:49.365Z,99394.66
2022-10-14T11:46:17.320Z,99396.47
2022-10-14T11:48:45.405Z,99391.63
2022-10-14T11:51:13.499Z,99391.19
2022-10-14T11:53:41.405Z,99396.66
2022-10-14T11:56:10.671Z,99396.38
2022-10-14T11:58:38.610Z,99385.41
2022-10-14T12:01:07.217Z,99380.19
2022-10-14T12:03:35.428Z,99375.25
2022-10-14T12:06:04.285Z,99376.38
2022-10-14T12:08:33.255Z,99375.06
2022-10-14T12:11:03.962Z,99384.88
2022-10-14T12:13:32.464Z,99374.81
2022-10-14T12:16:01.228Z,99371.88
2022-10-14T12:18:29.380Z,99374.09
2022-10-14T12:20:57.651Z,99368.56
2022-10-14T12:23:25.402Z,99362.06
2022-10-14T12:25:53.196Z,99360.78
2022-10-14T12:28:21.635Z,99361.25
2022-10-14T12:30:49.446Z,99368.97
2022-10-14T12:33:22.534Z,99355.00
2022-10-14T12:35:50.636Z,99349.88
2022-10-14T12:38:18.480Z,99350.31
2022-10-14T12:40:49.517Z,99353.91
2022-10-14T12:43:17.486Z,99351.13
2022-10-14T12:45:45.947Z,99350.16
2022-10-14T12:48:13.901Z,99353.56
2022-10-14T12:50:41.703Z,99349.94
2022-10-14T12:53:10.251Z,99344.44
2022-10-14T12:55:39.263Z,99336.03
2022-10-14T12:58:07.417Z,99336.03
2022-10-14T13:00:35.228Z,99334.16
2022-10-14T13:03:03.526Z,99326.00
2022-10-14T13:05:32.563Z,99333.53
2022-10-14T13:08:00.635Z,99325.63
2022-10-14T13:10:29.029Z,99330.00
2022-10-14T13:12:57.085Z,99307.97
2022-10-14T13:15:24.983Z,99321.34
2022-10-14T13:17:53.095Z,99318.03
2022-10-14T13:20:21.002Z,99306.00
2022-10-14T13:22:50.122Z,99302.41
2022-10-14T13:25:18.633Z,99297.78
2022-10-14T13:27:46.712Z,99297.84
2022-10-14T13:30:14.871Z,99296.22
2022-10-14T13:32:43.165Z,99294.28
2022-10-14T13:35:11.160Z,99285.94
2022-10-14T13:37:43.432Z,99291.00
2022-10-14T13:40:13.935Z,99278.22
2022-10-14T13:42:42.493Z,99266.28
2022-10-14T13:45:10.340Z,99263.25
2022-10-14T13:47:38.872Z,99266.78
2022-10-14T13:50:06.744Z,99259.03
2022-10-14T13:52:34.488Z,99261.84
2022-10-14T13:55:02.821Z,99259.28
2022-10-14T14:03:07.026Z,99255.81
2022-10-14T14:05:36.198Z,99260.56
2022-10-14T14:11:14.894Z,99248.88
2022-10-14T14:13:40.381Z,99245.72
2022-10-14T14:16:08.509Z,99247.53
2022-10-14T14:18:49.368Z,99251.63
2022-10-14T14:21:24.861Z,99247.78
2022-10-14T14:23:52.750Z,99239.25
2022-10-14T14:26:21.809Z,99238.94
2022-10-14T14:28:49.934Z,99249.03
2022-10-14T14:31:17.788Z,99245.84
2022-10-14T14:33:45.939Z,99236.13
2022-10-14T14:36:22.408Z,99236.44
2022-10-14T14:39:02.016Z,99234.25
2022-10-14T14:41:31.601Z,99237.13
2022-10-14T14:44:25.102Z,99237.31
2022-10-14T14:46:47.908Z,99230.44
2022-10-14T14:49:16.027Z,99233.44
2022-10-14T14:51:44.054Z,99231.97
2022-10-14T14:54:12.738Z,99226.59
2022-10-14T14:56:40.625Z,99229.47
2022-10-14T14:59:08.465Z,99230.47
2022-10-14T15:01:36.665Z,99232.97
2022-10-14T15:04:14.795Z,99232.97
2022-10-14T15:06:50.923Z,99221.41
2022-10-14T15:09:19.775Z,99226.78
2022-10-14T15:11:47.953Z,99213.50
2022-10-14T15:14:20.066Z,99211.84
2022-10-14T15:16:50.046Z,99210.16
2022-10-14T15:19:17.952Z,99212.84
2022-10-14T15:21:47.600Z,99211.19
2022-10-14T15:24:15.841Z,99207.63
2022-10-14T15:26:44.800Z,99199.78
2022-10-14T15:29:12.595Z,99202.25
2022-10-14T15:31:40.537Z,99205.97
2022-10-14T15:34:08.407Z,99192.69
2022-10-14T15:36:36.422Z,99194.72
2022-10-14T15:39:11.343Z,99192.22
2022-10-14T15:41:40.697Z,99182.69
2022-10-14T15:44:08.767Z,99193.44
2022-10-14T15:46:54.001Z,99194.41
2022-10-14T15:49:22.639Z,99187.38
2022-10-14T15:51:50.487Z,99196.63
2022-10-14T15:54:18.263Z,99183.38
2022-10-14T15:56:46.704Z,99182.72
2022-10-14T15:59:16.245Z,99178.53
2022-10-14T16:01:45.641Z,99176.00
2022-10-14T16:04:13.734Z,99173.31
2022-10-14T16:06:42.305Z,99185.09
2022-10-14T16:09:10.621Z,99173.31
2022-10-14T16:11:38.535Z,99171.50
2022-10-14T16:14:07.161Z,99169.63
2022-10-14T16:16:35.094Z,99173.31
2022-10-14T16:19:03.979Z,99165.28
2022-10-14T16:21:31.942Z,99162.94
2022-10-14T16:24:00.252Z,99154.88
2022-10-14T16:26:30.213Z,99162.09
2022-10-14T16:28:58.107Z,99163.97
2022-10-14T16:31:26.479Z,99155.91
2022-10-14T16:33:55.130Z,99156.72
2022-10-14T16:36:23.504Z,99162.09
2022-10-14T16:38:51.657Z,99169.13
2022-10-14T16:41:19.552Z,99161.06
2022-10-14T16:43:47.802Z,99153.88
2022-10-14T16:46:15.824Z,99155.72
2022-10-14T16:48:43.899Z,99160.44
2022-10-14T16:51:12.313Z,99153.38
2022-10-14T16:53:45.193Z,99154.56
2022-10-14T16:56:26.860Z,99159.28
2022-10-14T16:58:54.811Z,99148.22
2022-10-14T17:01:23.067Z,99156.78
2022-10-14T17:03:50.913Z,99157.31
2022-10-14T17:06:23.234Z,99154.16
2022-10-14T17:08:52.192Z,99163.38
2022-10-14T17:11:20.133Z,99170.56
2022-10-14T17:13:49.348Z,99170.56
2022-10-14T17:16:17.212Z,99163.53
2022-10-14T17:18:45.144Z,99162.72
2022-10-14T17:21:13.917Z,99160.19
2022-10-14T17:23:42.354Z,99165.72
2022-10-14T17:26:11.533Z,99163.25
2022-10-14T17:28:39.536Z,99173.47
2022-10-14T17:31:07.498Z,99165.75
2022-10-14T17:33:35.556Z,99155.38
2022-10-14T17:36:03.880Z,99154.72
2022-10-14T17:38:32.527Z,99161.25
2022-10-14T17:41:00.391Z,99165.78
2022-10-14T17:43:28.188Z,99163.09
2022-10-14T17:45:56.129Z,99164.78
2022-10-14T17:48:24.037Z,99160.25
2022-10-14T17:50:52.551Z,99159.59
2022-10-14T17:53:20.388Z,99157.06
2022-10-14T17:55:48.275Z,99163.44
2022-10-14T17:58:16.443Z,99155.41
2022-10-14T18:00:44.744Z,99145.69
2022-10-14T18:03:12.998Z,99153.03
2022-10-14T18:05:43.953Z,99148.88
2022-10-14T18:08:14.674Z,99150.72
2022-10-14T18:10:42.543Z,99142.00
2022-10-14T18:13:10.361Z,99140.34
2022-10-14T18:15:39.408Z,99144.84
2022-10-14T18:18:08.499Z,99138.81
2022-10-14T18:20:36.748Z,99143.31
2022-10-14T18:23:04.555Z,99144.97
2022-10-14T18:25:32.800Z,99144.16
2022-10-14T18:28:01.313Z,99144.31
2022-10-14T18:30:29.171Z,99151.56
2022-10-14T18:32:56.997Z,99146.34
2022-10-14T18:35:24.871Z,99140.97
2022-10-14T18:37:52.798Z,99152.72
2022-10-14T18:40:22.407Z,99150.03
2022-10-14T18:42:50.256Z,99150.88
2022-10-14T18:45:18.221Z,99144.69
2022-10-14T18:47:45.965Z,99138.31
2022-10-14T18:50:13.741Z,99138.31
2022-10-14T18:52:42.274Z,99131.28
2022-10-14T18:55:10.199Z,99136.63
2022-10-14T18:57:38.715Z,99136.63
2022-10-14T19:00:09.369Z,99136.63
2022-10-14T19:02:40.355Z,99132.94
2022-10-14T19:05:08.516Z,99131.94
2022-10-14T19:07:36.207Z,99132.78
2022-10-14T19:10:04.267Z,99116.47
2022-10-14T19:12:44.866Z,99124.53
2022-10-14T19:15:13.286Z,99126.06
2022-10-14T19:17:41.179Z,99111.66
2022-10-14T19:20:09.203Z,99116.19
2022-10-14T19:22:45.009Z,99111.81
2022-10-14T19:25:13.271Z,99122.69
2022-10-14T19:27:41.546Z,99132.59
2022-10-14T19:30:09.356Z,99130.09
2022-10-14T19:32:37.337Z,99128.88
2022-10-14T19:35:05.308Z,99134.97
2022-10-14T19:37:33.235Z,99132.28
2022-10-14T19:40:01.492Z,99128.44
2022-10-14T19:42:29.245Z,99128.06
2022-10-14T19:44:57.675Z,99128.72
2022-10-14T19:47:25.822Z,99128.72
2022-10-14T19:49:54.114Z,99128.56
2022-10-14T19:52:22.291Z,99120.53
2022-10-14T19:54:50.197Z,99117.84
2022-10-14T19:57:17.987Z,99115.16
2022-10-14T19:59:45.765Z,99103.41
2022-10-14T20:02:14.103Z,99101.56
2022-10-14T20:04:41.965Z,99106.09
2022-10-14T20:07:10.225Z,99100.06
2022-10-14T20:09:38.208Z,99098.56
2022-10-14T20:12:06.019Z,99091.53
2022-10-14T20:14:34.001Z,99088.34
2022-10-14T20:17:04.406Z,99082.63
2022-10-14T20:19:32.211Z,99083.81
2022-10-14T20:22:01.849Z,99084.00
2022-10-14T20:24:29.681Z,99081.63
2022-10-14T20:26:57.701Z,99073.78
2022-10-14T20:29:26.314Z,99074.13
2022-10-14T20:31:54.601Z,99076.97
2022-10-14T20:34:22.659Z,99086.00
2022-10-14T20:36:50.456Z,99095.94
2022-10-14T20:39:18.977Z,99077.81
2022-10-14T20:41:47.171Z,99083.00
2022-10-14T20:44:14.869Z,99088.03
2022-10-14T20:46:42.798Z,99081.63
2022-10-14T20:49:10.510Z,99078.78
2022-10-14T20:51:40.233Z,99081.31
2022-10-14T20:54:11.730Z,99078.63
2022-10-14T20:56:40.166Z,99075.09
2022-10-14T20:59:08.192Z,99083.16
2022-10-14T21:01:36.207Z,99084.00
2022-10-14T21:04:04.371Z,99081.31
2022-10-14T21:06:32.237Z,99074.25
2022-10-14T21:09:00.186Z,99068.22
2022-10-14T21:11:28.403Z,99073.78
2022-10-14T21:13:56.565Z,99075.78
2022-10-14T21:16:24.637Z,99070.41
2022-10-14T21:18:55.336Z,99067.94
2022-10-14T21:21:25.680Z,99071.78
2022-10-14T21:23:53.785Z,99074.78
2022-10-14T21:26:21.619Z,99069.63
2022-10-14T21:28:49.641Z,99072.63
2022-10-14T21:31:19.197Z,99060.59
2022-10-14T21:33:47.382Z,99059.25
2022-10-14T21:36:18.398Z,99061.59
2022-10-14T21:38:46.285Z,99061.13
2022-10-14T21:41:14.612Z,99059.94
2022-10-14T21:43:42.558Z,99061.31
2022-10-14T21:46:10.386Z,99070.69
2022-10-14T21:48:38.249Z,99063.16
2022-10-14T21:51:06.098Z,99069.88
2022-10-14T21:53:33.968Z,99062.34
2022-10-14T21:56:02.084Z,99054.63
2022-10-14T21:58:30.397Z,99054.97
2022-10-14T22:00:58.232Z,99056.13
2022-10-14T22:03:26.070Z,99064.50
2022-10-14T22:05:55.295Z,99060.16
2022-10-14T22:08:24.495Z,99063.00
2022-10-14T22:10:52.219Z,99056.16
2022-10-14T22:13:19.943Z,99060.66
2022-10-14T22:15:47.710Z,99067.03
2022-10-14T22:18:15.716Z,99065.34
2022-10-14T22:20:43.842Z,99064.34
2022-10-14T22:23:11.601Z,99063.69
2022-10-14T22:25:39.289Z,99066.19
2022-10-14T22:28:07.078Z,99060.84
2022-10-14T22:30:34.978Z,99071.38
2022-10-14T22:33:02.829Z,99065.84
2022-10-14T22:35:30.619Z,99057.66
2022-10-14T22:37:58.305Z,99063.66
2022-10-14T22:40:25.991Z,99056.47
2022-10-14T22:42:54.496Z,99059.97
2022-10-14T22:45:22.239Z,99064.34
2022-10-14T22:47:49.865Z,99062.50
2022-10-14T22:50:17.570Z,99064.00
2022-10-14T22:52:45.274Z,99049.59
2022-10-14T22:55:13.204Z,99053.97
2022-10-14T22:57:41.213Z,99052.09
2022-10-14T23:00:09.319Z,99045.91
2022-10-14T23:02:37.376Z,99039.72
2022-10-14T23:05:05.135Z,99042.59
2022-10-14T23:07:33.281Z,99052.44
2022-10-14T23:10:01.258Z,99049.09
2022-10-14T23:12:28.969Z,99043.06
2022-10-14T23:14:56.680Z,99037.69
2022-10-14T23:17:24.408Z,99036.03
2022-10-14T23:19:52.467Z,99034.38
2022-10-14T23:22:20.624Z,99038.06
2022-10-14T23:24:48.877Z,99043.41
2022-10-14T23:27:16.604Z,99030.00
2022-10-14T23:29:44.262Z,99034.56
2022-10-14T23:32:11.910Z,99034.56
2022-10-14T23:34:40.025Z,99040.72
2022-10-14T23:37:07.692Z,99042.25
2022-10-14T23:39:35.347Z,99043.91
2022-10-14T23:42:03.012Z,99049.25
2022-10-14T23:44:31.754Z,99033.19
2022-10-14T23:46:59.714Z,99040.22
2022-10-14T23:49:27.324Z,99048.09
2022-10-14T23:51:55.346Z,99041.72
2022-10-14T23:54:22.956Z,99038.19
2022-10-14T23:56:50.657Z,99045.06
2022-10-14T23:59:18.641Z,99038.88
